sensor_id;sensor_type;location;lat;lon;timestamp;temperature;humidity
45311;SHT31;68264;51.540;5.854;2023-05-21T00:11:33;12.2;81.5
45311;SHT31;68264;51.540;5.854;2023-05-21T00:25:32;12.2;81.4
45311;SHT31;68264;51.540;5.854;2023-05-21T00:39:31;12.2;81.7
45311;SHT31;68264;51.540;5.854;2023-05-21T00:53:30;12.3;81.2
45311;SHT31;68264;51.540;5.854;2023-05-21T01:07:29;12.2;80.8
45311;SHT31;68264;51.540;5.854;2023-05-21T01:21:28;12.2;81.5
45311;SHT31;68264;51.540;5.854;2023-05-21T01:35:28;12.6;82.3
45311;SHT31;68264;51.540;5.854;2023-05-21T01:49:27;12.8;81.0
45311;SHT31;68264;51.540;5.854;2023-05-21T02:03:26;12.9;80.3
45311;SHT31;68264;51.540;5.854;2023-05-21T02:17:25;12.9;80.3
45311;SHT31;68264;51.540;5.854;2023-05-21T02:31:53;12.8;80.6
45311;SHT31;68264;51.540;5.854;2023-05-21T02:47:13;12.7;81.0
45311;SHT31;68264;51.540;5.854;2023-05-21T03:03:14;12.8;81.6
45311;SHT31;68264;51.540;5.854;2023-05-21T03:18:14;12.8;81.3
45311;SHT31;68264;51.540;5.854;2023-05-21T03:32:13;12.8;81.3
45311;SHT31;68264;51.540;5.854;2023-05-21T03:46:12;12.7;81.5
45311;SHT31;68264;51.540;5.854;2023-05-21T04:00:11;12.7;82.0
45311;SHT31;68264;51.540;5.854;2023-05-21T04:14:10;12.7;82.0
45311;SHT31;68264;51.540;5.854;2023-05-21T04:28:09;12.8;82.3
45311;SHT31;68264;51.540;5.854;2023-05-21T04:42:37;13.0;82.2
45311;SHT31;68264;51.540;5.854;2023-05-21T04:56:56;13.3;81.8
45311;SHT31;68264;51.540;5.854;2023-05-21T05:10:55;13.6;81.4
45311;SHT31;68264;51.540;5.854;2023-05-21T05:24:54;13.9;80.6
45311;SHT31;68264;51.540;5.854;2023-05-21T05:38:53;14.2;79.9
45311;SHT31;68264;51.540;5.854;2023-05-21T05:52:52;14.6;78.8
45311;SHT31;68264;51.540;5.854;2023-05-21T06:06:51;15.0;76.7
45311;SHT31;68264;51.540;5.854;2023-05-21T06:21:19;15.3;76.3
45311;SHT31;68264;51.540;5.854;2023-05-21T06:35:39;15.6;74.8
45311;SHT31;68264;51.540;5.854;2023-05-21T06:49:38;16.0;73.3
45311;SHT31;68264;51.540;5.854;2023-05-21T07:04:06;16.3;72.3
45311;SHT31;68264;51.540;5.854;2023-05-21T07:18:25;16.9;71.5
45311;SHT31;68264;51.540;5.854;2023-05-21T07:32:53;17.4;69.2
45311;SHT31;68264;51.540;5.854;2023-05-21T07:47:12;18.3;67.3
45311;SHT31;68264;51.540;5.854;2023-05-21T08:01:40;19.3;63.1
45311;SHT31;68264;51.540;5.854;2023-05-21T08:16:00;19.2;64.2
45311;SHT31;68264;51.540;5.854;2023-05-21T08:29:59;19.8;62.8
45311;SHT31;68264;51.540;5.854;2023-05-21T08:43:58;20.0;61.4
45311;SHT31;68264;51.540;5.854;2023-05-21T08:57:57;20.4;61.7
45311;SHT31;68264;51.540;5.854;2023-05-21T09:11:56;20.4;65.4
45311;SHT31;68264;51.540;5.854;2023-05-21T09:25:55;20.4;67.1
45311;SHT31;68264;51.540;5.854;2023-05-21T09:39:54;20.8;63.8
45311;SHT31;68264;51.540;5.854;2023-05-21T09:54:22;21.1;64.3
45311;SHT31;68264;51.540;5.854;2023-05-21T10:08:41;21.4;64.1
45311;SHT31;68264;51.540;5.854;2023-05-21T10:23:10;22.1;63.3
45311;SHT31;68264;51.540;5.854;2023-05-21T10:38:30;22.6;62.1
45311;SHT31;68264;51.540;5.854;2023-05-21T10:53:59;23.9;58.2
45311;SHT31;68264;51.540;5.854;2023-05-21T11:08:18;23.5;60.5
45311;SHT31;68264;51.540;5.854;2023-05-21T11:22:17;24.6;56.2
45311;SHT31;68264;51.540;5.854;2023-05-21T11:36:16;25.5;54.0
45311;SHT31;68264;51.540;5.854;2023-05-21T11:50:15;25.9;52.7
45311;SHT31;68264;51.540;5.854;2023-05-21T12:04:14;25.6;54.6
45311;SHT31;68264;51.540;5.854;2023-05-21T12:18:13;26.2;53.3
45311;SHT31;68264;51.540;5.854;2023-05-21T12:32:12;25.9;53.3
45311;SHT31;68264;51.540;5.854;2023-05-21T12:46:40;26.1;52.1
45311;SHT31;68264;51.540;5.854;2023-05-21T13:03:05;26.6;52.9
45311;SHT31;68264;51.540;5.854;2023-05-21T13:20:06;26.6;52.4
45311;SHT31;68264;51.540;5.854;2023-05-21T13:35:06;26.9;53.7
45311;SHT31;68264;51.540;5.854;2023-05-21T13:49:34;27.0;52.4
45311;SHT31;68264;51.540;5.854;2023-05-21T14:03:53;27.3;50.9
45311;SHT31;68264;51.540;5.854;2023-05-21T14:17:52;27.6;50.7
45311;SHT31;68264;51.540;5.854;2023-05-21T14:31:51;27.7;50.3
45311;SHT31;68264;51.540;5.854;2023-05-21T14:46:19;28.1;49.9
45311;SHT31;68264;51.540;5.854;2023-05-21T15:00:39;28.3;49.3
45311;SHT31;68264;51.540;5.854;2023-05-21T15:15:07;27.7;49.9
45311;SHT31;68264;51.540;5.854;2023-05-21T15:29:26;27.7;50.0
45311;SHT31;68264;51.540;5.854;2023-05-21T15:43:25;27.5;50.5
45311;SHT31;68264;51.540;5.854;2023-05-21T15:58:25;27.2;52.0
45311;SHT31;68264;51.540;5.854;2023-05-21T16:13:25;27.2;51.5
45311;SHT31;68264;51.540;5.854;2023-05-21T16:27:24;27.0;53.2
45311;SHT31;68264;51.540;5.854;2023-05-21T16:41:23;27.0;52.6
45311;SHT31;68264;51.540;5.854;2023-05-21T16:55:22;27.2;51.8
45311;SHT31;68264;51.540;5.854;2023-05-21T17:09:21;26.7;53.4
45311;SHT31;68264;51.540;5.854;2023-05-21T17:23:20;26.8;52.8
45311;SHT31;68264;51.540;5.854;2023-05-21T17:37:19;26.9;53.9
45311;SHT31;68264;51.540;5.854;2023-05-21T17:51:18;26.6;54.4
45311;SHT31;68264;51.540;5.854;2023-05-21T18:05:17;26.1;55.2
45311;SHT31;68264;51.540;5.854;2023-05-21T18:20:50;25.6;56.9
45311;SHT31;68264;51.540;5.854;2023-05-21T18:37:21;24.7;58.6
45311;SHT31;68264;51.540;5.854;2023-05-21T18:52:20;24.2;60.0
45311;SHT31;68264;51.540;5.854;2023-05-21T19:06:19;23.6;61.6
45311;SHT31;68264;51.540;5.854;2023-05-21T19:20:47;23.0;63.7
45311;SHT31;68264;51.540;5.854;2023-05-21T19:35:36;22.2;66.2
45311;SHT31;68264;51.540;5.854;2023-05-21T19:49:55;21.2;69.6
45311;SHT31;68264;51.540;5.854;2023-05-21T20:03:54;20.4;72.1
45311;SHT31;68264;51.540;5.854;2023-05-21T20:17:53;19.9;74.0
45311;SHT31;68264;51.540;5.854;2023-05-21T20:31:52;19.4;73.9
45311;SHT31;68264;51.540;5.854;2023-05-21T20:45:51;18.9;74.6
45311;SHT31;68264;51.540;5.854;2023-05-21T21:00:19;18.7;78.0
45311;SHT31;68264;51.540;5.854;2023-05-21T21:14:39;18.5;77.9
45311;SHT31;68264;51.540;5.854;2023-05-21T21:28:38;18.5;77.8
45311;SHT31;68264;51.540;5.854;2023-05-21T21:42:37;18.4;78.5
45311;SHT31;68264;51.540;5.854;2023-05-21T21:57:05;18.2;79.1
45311;SHT31;68264;51.540;5.854;2023-05-21T22:11:24;17.9;80.1
45311;SHT31;68264;51.540;5.854;2023-05-21T22:25:23;17.8;80.9
